KPUJ

Paulding Northwest Atlanta Airport

Atlanta, Georgia, USA
METAR KPUJ 182335Z AUTO 23007KT 190V250 7SM -RA SCT019 BKN031 OVC080 24/24 A3000 RMK AO2 LTG DSNT SW
Observed Flight Rules
Aug-18 @ 23:35 UTC (10 minutes ago) Visual Flight Rules
Wind Visibility Clouds Conditions
230° at 7 knots 7 miles
  • Scattered at 1,900' AGL
  • Broken at 3,100' AGL
  • Overcast at 8,000' AGL
  • Light Rain
Temperatures Readings
Current 24°C / 75°F
Dewpoint 24°C / 75°F
Humidity 100%
Altimeter 30" Hg
Pressure 1016 hPa
Elevation 393
METAR KPUJ 182335Z AUTO 23007KT 190V250 7SM -RA SCT019 BKN031 OVC080 24/24 A3000 RMK AO2 LTG DSNT SW
Observed Flight Rules
Aug-18 @ 23:35 UTC
(10 minutes ago)
VFR
Wind Visibility
230° at 7 knots 7 miles
Clouds
  • Scattered at 1,900' AGL
  • Broken at 3,100' AGL
  • Overcast at 8,000' AGL
Conditions
  • Light Rain
Temperature Dewpoint
24°C / 75°F 24°C / 75°F
Humidity Altimeter Pressure
100% 30" Hg 1016 hPa